sensor_id;sensor_type;location;lat;lon;timestamp;temperature;humidity
2489;DHT22;1255;48.716;9.124;2023-05-21T00:00:23;14.80;99.90
2489;DHT22;1255;48.716;9.124;2023-05-21T00:02:49;14.80;99.90
2489;DHT22;1255;48.716;9.124;2023-05-21T00:05:16;14.80;99.90
2489;DHT22;1255;48.716;9.124;2023-05-21T00:07:45;14.70;99.90
2489;DHT22;1255;48.716;9.124;2023-05-21T00:10:12;14.80;99.90
2489;DHT22;1255;48.716;9.124;2023-05-21T00:12:41;14.70;99.90
2489;DHT22;1255;48.716;9.124;2023-05-21T00:15:08;14.70;99.90
2489;DHT22;1255;48.716;9.124;2023-05-21T00:17:35;14.70;99.90
2489;DHT22;1255;48.716;9.124;2023-05-21T00:20:03;14.70;99.90
2489;DHT22;1255;48.716;9.124;2023-05-21T00:22:31;14.70;99.90
2489;DHT22;1255;48.716;9.124;2023-05-21T00:25:00;14.70;99.90
2489;DHT22;1255;48.716;9.124;2023-05-21T00:27:27;14.70;99.90
2489;DHT22;1255;48.716;9.124;2023-05-21T00:29:55;14.70;99.90
2489;DHT22;1255;48.716;9.124;2023-05-21T00:32:21;14.60;99.90
2489;DHT22;1255;48.716;9.124;2023-05-21T00:34:48;14.60;99.90
2489;DHT22;1255;48.716;9.124;2023-05-21T00:37:15;14.60;99.90
2489;DHT22;1255;48.716;9.124;2023-05-21T00:39:42;14.60;99.90
2489;DHT22;1255;48.716;9.124;2023-05-21T00:42:08;14.60;99.90
2489;DHT22;1255;48.716;9.124;2023-05-21T00:44:36;14.60;99.90
2489;DHT22;1255;48.716;9.124;2023-05-21T00:47:05;14.60;99.90
2489;DHT22;1255;48.716;9.124;2023-05-21T00:49:32;14.60;99.90
2489;DHT22;1255;48.716;9.124;2023-05-21T00:51:59;14.60;99.90
2489;DHT22;1255;48.716;9.124;2023-05-21T00:54:26;14.50;99.90
2489;DHT22;1255;48.716;9.124;2023-05-21T00:56:53;14.50;99.90
2489;DHT22;1255;48.716;9.124;2023-05-21T00:59:21;14.50;99.90
2489;DHT22;1255;48.716;9.124;2023-05-21T01:01:48;14.50;99.90
2489;DHT22;1255;48.716;9.124;2023-05-21T01:04:21;14.50;99.90
2489;DHT22;1255;48.716;9.124;2023-05-21T01:06:48;14.50;99.90
2489;DHT22;1255;48.716;9.124;2023-05-21T01:09:15;14.50;99.90
2489;DHT22;1255;48.716;9.124;2023-05-21T01:11:45;14.50;99.90
2489;DHT22;1255;48.716;9.124;2023-05-21T01:14:12;14.50;99.90
2489;DHT22;1255;48.716;9.124;2023-05-21T01:16:41;14.50;99.90
2489;DHT22;1255;48.716;9.124;2023-05-21T01:19:14;14.50;99.90
2489;DHT22;1255;48.716;9.124;2023-05-21T01:21:44;14.50;99.90
2489;DHT22;1255;48.716;9.124;2023-05-21T01:24:13;14.50;99.90
2489;DHT22;1255;48.716;9.124;2023-05-21T01:26:40;14.50;99.90
2489;DHT22;1255;48.716;9.124;2023-05-21T01:29:09;14.50;99.90
2489;DHT22;1255;48.716;9.124;2023-05-21T01:31:47;14.50;99.90
2489;DHT22;1255;48.716;9.124;2023-05-21T01:34:23;14.50;99.90
2489;DHT22;1255;48.716;9.124;2023-05-21T01:36:56;14.50;99.90
2489;DHT22;1255;48.716;9.124;2023-05-21T01:39:29;14.40;99.90
2489;DHT22;1255;48.716;9.124;2023-05-21T01:41:58;14.40;99.90
2489;DHT22;1255;48.716;9.124;2023-05-21T01:44:26;14.40;99.90
2489;DHT22;1255;48.716;9.124;2023-05-21T01:46:53;14.40;99.90
2489;DHT22;1255;48.716;9.124;2023-05-21T01:49:22;14.30;99.90
2489;DHT22;1255;48.716;9.124;2023-05-21T01:51:49;14.30;99.90
2489;DHT22;1255;48.716;9.124;2023-05-21T01:54:16;14.20;99.90
2489;DHT22;1255;48.716;9.124;2023-05-21T01:56:44;14.20;99.90
2489;DHT22;1255;48.716;9.124;2023-05-21T01:59:12;14.20;99.90
2489;DHT22;1255;48.716;9.124;2023-05-21T02:01:39;14.20;99.90
2489;DHT22;1255;48.716;9.124;2023-05-21T02:04:06;14.20;99.90
2489;DHT22;1255;48.716;9.124;2023-05-21T02:06:33;14.10;99.90
2489;DHT22;1255;48.716;9.124;2023-05-21T02:09:00;14.10;99.90
2489;DHT22;1255;48.716;9.124;2023-05-21T02:11:27;14.10;99.90
2489;DHT22;1255;48.716;9.124;2023-05-21T02:13:55;14.10;99.90
2489;DHT22;1255;48.716;9.124;2023-05-21T02:16:23;14.10;99.90
2489;DHT22;1255;48.716;9.124;2023-05-21T02:18:50;14.10;99.90
2489;DHT22;1255;48.716;9.124;2023-05-21T02:21:21;14.10;99.90
2489;DHT22;1255;48.716;9.124;2023-05-21T02:23:48;14.00;99.90
2489;DHT22;1255;48.716;9.124;2023-05-21T02:26:15;14.00;99.90
2489;DHT22;1255;48.716;9.124;2023-05-21T02:28:42;14.00;99.90
2489;DHT22;1255;48.716;9.124;2023-05-21T02:31:10;14.00;99.90
2489;DHT22;1255;48.716;9.124;2023-05-21T02:33:39;14.00;99.90
2489;DHT22;1255;48.716;9.124;2023-05-21T02:36:06;14.00;99.90
2489;DHT22;1255;48.716;9.124;2023-05-21T02:38:37;13.90;99.90
2489;DHT22;1255;48.716;9.124;2023-05-21T02:41:05;13.90;99.90
2489;DHT22;1255;48.716;9.124;2023-05-21T02:43:32;13.90;99.90
2489;DHT22;1255;48.716;9.124;2023-05-21T02:45:58;13.90;99.90
2489;DHT22;1255;48.716;9.124;2023-05-21T02:48:27;13.80;99.90
2489;DHT22;1255;48.716;9.124;2023-05-21T02:50:53;13.80;99.90
2489;DHT22;1255;48.716;9.124;2023-05-21T02:53:20;13.80;99.90
2489;DHT22;1255;48.716;9.124;2023-05-21T02:55:47;13.80;99.90
2489;DHT22;1255;48.716;9.124;2023-05-21T02:58:13;13.80;99.90
2489;DHT22;1255;48.716;9.124;2023-05-21T03:00:40;13.70;99.90
2489;DHT22;1255;48.716;9.124;2023-05-21T03:03:07;13.60;99.90
2489;DHT22;1255;48.716;9.124;2023-05-21T03:05:35;13.70;99.90
2489;DHT22;1255;48.716;9.124;2023-05-21T03:08:02;13.60;99.90
2489;DHT22;1255;48.716;9.124;2023-05-21T03:10:28;13.60;99.90
2489;DHT22;1255;48.716;9.124;2023-05-21T03:12:55;13.60;99.90
2489;DHT22;1255;48.716;9.124;2023-05-21T03:15:22;13.60;99.90
2489;DHT22;1255;48.716;9.124;2023-05-21T03:17:48;13.50;99.90
2489;DHT22;1255;48.716;9.124;2023-05-21T03:20:15;13.50;99.90
2489;DHT22;1255;48.716;9.124;2023-05-21T03:22:44;13.50;99.90
2489;DHT22;1255;48.716;9.124;2023-05-21T03:25:12;13.50;99.90
2489;DHT22;1255;48.716;9.124;2023-05-21T03:27:39;13.50;99.90
2489;DHT22;1255;48.716;9.124;2023-05-21T03:30:07;13.40;99.90
2489;DHT22;1255;48.716;9.124;2023-05-21T03:32:34;13.40;99.90
2489;DHT22;1255;48.716;9.124;2023-05-21T03:35:02;13.40;99.90
2489;DHT22;1255;48.716;9.124;2023-05-21T03:37:29;13.40;99.90
2489;DHT22;1255;48.716;9.124;2023-05-21T03:39:57;13.30;99.90
2489;DHT22;1255;48.716;9.124;2023-05-21T03:42:24;13.30;99.90
2489;DHT22;1255;48.716;9.124;2023-05-21T03:44:50;13.30;99.90
2489;DHT22;1255;48.716;9.124;2023-05-21T03:47:17;13.30;99.90
2489;DHT22;1255;48.716;9.124;2023-05-21T03:49:44;13.30;99.90
2489;DHT22;1255;48.716;9.124;2023-05-21T03:52:10;13.20;99.90
2489;DHT22;1255;48.716;9.124;2023-05-21T03:54:37;13.30;99.90
2489;DHT22;1255;48.716;9.124;2023-05-21T03:57:05;13.30;99.90
2489;DHT22;1255;48.716;9.124;2023-05-21T03:59:32;13.30;99.90
2489;DHT22;1255;48.716;9.124;2023-05-21T04:01:59;13.30;99.90
2489;DHT22;1255;48.716;9.124;2023-05-21T04:04:26;13.30;99.90
2489;DHT22;1255;48.716;9.124;2023-05-21T04:06:53;13.30;99.90
2489;DHT22;1255;48.716;9.124;2023-05-21T04:09:20;13.30;99.90
2489;DHT22;1255;48.716;9.124;2023-05-21T04:11:47;13.30;99.90
2489;DHT22;1255;48.716;9.124;2023-05-21T04:14:15;13.30;99.90
2489;DHT22;1255;48.716;9.124;2023-05-21T04:16:42;13.30;99.90
2489;DHT22;1255;48.716;9.124;2023-05-21T04:19:09;13.30;99.90
2489;DHT22;1255;48.716;9.124;2023-05-21T04:21:35;13.40;99.90
2489;DHT22;1255;48.716;9.124;2023-05-21T04:24:02;13.40;99.90
2489;DHT22;1255;48.716;9.124;2023-05-21T04:26:29;13.40;99.90
2489;DHT22;1255;48.716;9.124;2023-05-21T04:28:58;13.40;99.90
2489;DHT22;1255;48.716;9.124;2023-05-21T04:31:29;13.40;99.90
2489;DHT22;1255;48.716;9.124;2023-05-21T04:33:57;13.40;99.90
2489;DHT22;1255;48.716;9.124;2023-05-21T04:36:24;13.50;99.90
2489;DHT22;1255;48.716;9.124;2023-05-21T04:38:53;13.50;99.90
2489;DHT22;1255;48.716;9.124;2023-05-21T04:41:20;13.50;99.90
2489;DHT22;1255;48.716;9.124;2023-05-21T04:43:47;13.60;99.90
2489;DHT22;1255;48.716;9.124;2023-05-21T04:46:13;13.60;99.90
2489;DHT22;1255;48.716;9.124;2023-05-21T04:48:41;13.60;99.90
2489;DHT22;1255;48.716;9.124;2023-05-21T04:51:09;13.60;99.90
2489;DHT22;1255;48.716;9.124;2023-05-21T04:53:36;13.60;99.90
2489;DHT22;1255;48.716;9.124;2023-05-21T04:56:03;13.70;99.90
2489;DHT22;1255;48.716;9.124;2023-05-21T04:58:30;13.70;99.90
2489;DHT22;1255;48.716;9.124;2023-05-21T05:00:58;13.80;99.90
2489;DHT22;1255;48.716;9.124;2023-05-21T05:03:27;13.80;99.90
2489;DHT22;1255;48.716;9.124;2023-05-21T05:05:55;13.90;99.90
2489;DHT22;1255;48.716;9.124;2023-05-21T05:08:22;13.90;99.90
2489;DHT22;1255;48.716;9.124;2023-05-21T05:10:49;13.90;99.90
2489;DHT22;1255;48.716;9.124;2023-05-21T05:13:16;13.90;99.90
2489;DHT22;1255;48.716;9.124;2023-05-21T05:15:42;14.00;99.90
2489;DHT22;1255;48.716;9.124;2023-05-21T05:18:09;14.10;99.90
2489;DHT22;1255;48.716;9.124;2023-05-21T05:20:36;14.10;99.90
2489;DHT22;1255;48.716;9.124;2023-05-21T05:23:04;14.20;99.90
2489;DHT22;1255;48.716;9.124;2023-05-21T05:25:31;14.20;99.90
2489;DHT22;1255;48.716;9.124;2023-05-21T05:27:57;14.20;99.90
2489;DHT22;1255;48.716;9.124;2023-05-21T05:30:24;14.30;99.90
2489;DHT22;1255;48.716;9.124;2023-05-21T05:32:51;14.30;99.90
2489;DHT22;1255;48.716;9.124;2023-05-21T05:35:18;14.40;99.90
2489;DHT22;1255;48.716;9.124;2023-05-21T05:37:44;14.50;99.90
2489;DHT22;1255;48.716;9.124;2023-05-21T05:40:12;14.60;99.90
2489;DHT22;1255;48.716;9.124;2023-05-21T05:42:39;14.70;99.90
2489;DHT22;1255;48.716;9.124;2023-05-21T05:45:07;14.70;99.90
2489;DHT22;1255;48.716;9.124;2023-05-21T05:47:34;14.80;99.90
2489;DHT22;1255;48.716;9.124;2023-05-21T05:50:00;14.80;99.90
2489;DHT22;1255;48.716;9.124;2023-05-21T05:52:27;15.00;99.90
2489;DHT22;1255;48.716;9.124;2023-05-21T05:54:54;15.00;99.90
2489;DHT22;1255;48.716;9.124;2023-05-21T05:57:22;15.10;99.90
2489;DHT22;1255;48.716;9.124;2023-05-21T05:59:48;15.20;99.90
2489;DHT22;1255;48.716;9.124;2023-05-21T06:02:15;15.20;99.90
2489;DHT22;1255;48.716;9.124;2023-05-21T06:04:42;15.30;99.90
2489;DHT22;1255;48.716;9.124;2023-05-21T06:07:09;15.40;99.90
2489;DHT22;1255;48.716;9.124;2023-05-21T06:09:36;15.50;99.90
2489;DHT22;1255;48.716;9.124;2023-05-21T06:12:03;15.50;99.90
2489;DHT22;1255;48.716;9.124;2023-05-21T06:14:32;15.60;99.90
2489;DHT22;1255;48.716;9.124;2023-05-21T06:16:58;15.60;99.90
2489;DHT22;1255;48.716;9.124;2023-05-21T06:19:25;15.70;99.90
2489;DHT22;1255;48.716;9.124;2023-05-21T06:21:52;15.80;99.90
2489;DHT22;1255;48.716;9.124;2023-05-21T06:24:18;15.80;99.90
2489;DHT22;1255;48.716;9.124;2023-05-21T06:26:45;15.90;99.90
2489;DHT22;1255;48.716;9.124;2023-05-21T06:29:12;16.00;99.90
2489;DHT22;1255;48.716;9.124;2023-05-21T06:31:40;16.10;99.90
2489;DHT22;1255;48.716;9.124;2023-05-21T06:34:06;16.10;99.90
2489;DHT22;1255;48.716;9.124;2023-05-21T06:36:33;16.20;99.90
2489;DHT22;1255;48.716;9.124;2023-05-21T06:39:00;16.30;99.90
2489;DHT22;1255;48.716;9.124;2023-05-21T06:41:27;16.40;99.90
2489;DHT22;1255;48.716;9.124;2023-05-21T06:43:54;16.40;99.90
2489;DHT22;1255;48.716;9.124;2023-05-21T06:46:21;16.50;99.90
2489;DHT22;1255;48.716;9.124;2023-05-21T06:48:49;16.60;99.90
2489;DHT22;1255;48.716;9.124;2023-05-21T06:51:16;16.60;99.90
2489;DHT22;1255;48.716;9.124;2023-05-21T06:53:43;16.70;99.90
2489;DHT22;1255;48.716;9.124;2023-05-21T06:56:10;16.80;99.90
2489;DHT22;1255;48.716;9.124;2023-05-21T06:58:38;16.90;99.90
2489;DHT22;1255;48.716;9.124;2023-05-21T07:01:05;17.00;99.90
2489;DHT22;1255;48.716;9.124;2023-05-21T07:03:32;17.10;99.90
2489;DHT22;1255;48.716;9.124;2023-05-21T07:06:00;17.20;99.90
2489;DHT22;1255;48.716;9.124;2023-05-21T07:08:27;17.20;99.90
2489;DHT22;1255;48.716;9.124;2023-05-21T07:10:54;17.40;99.90
2489;DHT22;1255;48.716;9.124;2023-05-21T07:13:21;17.40;99.90
2489;DHT22;1255;48.716;9.124;2023-05-21T07:15:49;17.50;99.90
2489;DHT22;1255;48.716;9.124;2023-05-21T07:18:16;17.60;99.90
2489;DHT22;1255;48.716;9.124;2023-05-21T07:20:43;17.60;99.90
2489;DHT22;1255;48.716;9.124;2023-05-21T07:23:11;17.70;99.90
2489;DHT22;1255;48.716;9.124;2023-05-21T07:25:38;17.80;99.90
2489;DHT22;1255;48.716;9.124;2023-05-21T07:28:05;17.90;99.90
2489;DHT22;1255;48.716;9.124;2023-05-21T07:30:32;17.90;99.90
2489;DHT22;1255;48.716;9.124;2023-05-21T07:32:59;18.00;99.90
2489;DHT22;1255;48.716;9.124;2023-05-21T07:35:26;18.10;99.90
2489;DHT22;1255;48.716;9.124;2023-05-21T07:37:53;18.30;99.90
2489;DHT22;1255;48.716;9.124;2023-05-21T07:40:22;18.40;99.90
2489;DHT22;1255;48.716;9.124;2023-05-21T07:42:48;18.50;99.90
2489;DHT22;1255;48.716;9.124;2023-05-21T07:45:16;18.50;99.90
2489;DHT22;1255;48.716;9.124;2023-05-21T07:47:44;18.60;99.90
2489;DHT22;1255;48.716;9.124;2023-05-21T07:50:13;18.70;99.90
2489;DHT22;1255;48.716;9.124;2023-05-21T07:52:40;18.80;99.90
2489;DHT22;1255;48.716;9.124;2023-05-21T07:55:08;18.90;99.90
2489;DHT22;1255;48.716;9.124;2023-05-21T07:57:37;19.00;99.90
2489;DHT22;1255;48.716;9.124;2023-05-21T08:00:05;19.00;99.90
2489;DHT22;1255;48.716;9.124;2023-05-21T08:02:33;19.10;99.90
2489;DHT22;1255;48.716;9.124;2023-05-21T08:05:00;19.20;99.90
2489;DHT22;1255;48.716;9.124;2023-05-21T08:07:27;19.40;99.90
2489;DHT22;1255;48.716;9.124;2023-05-21T08:09:53;19.40;99.90
2489;DHT22;1255;48.716;9.124;2023-05-21T08:12:20;19.60;99.90
2489;DHT22;1255;48.716;9.124;2023-05-21T08:14:48;19.90;99.90
2489;DHT22;1255;48.716;9.124;2023-05-21T08:17:15;20.10;99.90
2489;DHT22;1255;48.716;9.124;2023-05-21T08:19:42;20.20;99.90
2489;DHT22;1255;48.716;9.124;2023-05-21T08:22:09;20.20;99.90
2489;DHT22;1255;48.716;9.124;2023-05-21T08:24:36;20.30;99.90
2489;DHT22;1255;48.716;9.124;2023-05-21T08:27:03;20.40;99.90
2489;DHT22;1255;48.716;9.124;2023-05-21T08:29:29;20.60;99.90
2489;DHT22;1255;48.716;9.124;2023-05-21T08:31:58;20.60;99.90
2489;DHT22;1255;48.716;9.124;2023-05-21T08:34:25;20.60;99.90
2489;DHT22;1255;48.716;9.124;2023-05-21T08:36:52;20.80;99.90
2489;DHT22;1255;48.716;9.124;2023-05-21T08:39:19;21.00;99.90
2489;DHT22;1255;48.716;9.124;2023-05-21T08:41:46;21.00;99.90
2489;DHT22;1255;48.716;9.124;2023-05-21T08:44:18;21.10;99.90
2489;DHT22;1255;48.716;9.124;2023-05-21T08:46:48;21.20;99.90
2489;DHT22;1255;48.716;9.124;2023-05-21T08:49:19;21.40;99.90
2489;DHT22;1255;48.716;9.124;2023-05-21T08:51:48;21.60;99.90
2489;DHT22;1255;48.716;9.124;2023-05-21T08:54:15;21.70;99.90
2489;DHT22;1255;48.716;9.124;2023-05-21T08:56:43;21.80;99.90
2489;DHT22;1255;48.716;9.124;2023-05-21T08:59:11;21.90;99.90
2489;DHT22;1255;48.716;9.124;2023-05-21T09:01:39;22.10;99.90
2489;DHT22;1255;48.716;9.124;2023-05-21T09:04:08;22.40;99.90
2489;DHT22;1255;48.716;9.124;2023-05-21T09:06:39;22.50;99.90
2489;DHT22;1255;48.716;9.124;2023-05-21T09:09:13;22.60;99.90
2489;DHT22;1255;48.716;9.124;2023-05-21T09:11:41;22.70;99.90
2489;DHT22;1255;48.716;9.124;2023-05-21T09:14:09;22.80;99.90
2489;DHT22;1255;48.716;9.124;2023-05-21T09:16:36;22.90;99.90
2489;DHT22;1255;48.716;9.124;2023-05-21T09:19:03;23.10;99.90
2489;DHT22;1255;48.716;9.124;2023-05-21T09:21:30;23.00;99.90
2489;DHT22;1255;48.716;9.124;2023-05-21T09:23:59;22.90;99.90
2489;DHT22;1255;48.716;9.124;2023-05-21T09:26:26;22.90;99.90
2489;DHT22;1255;48.716;9.124;2023-05-21T09:28:56;22.80;99.90
2489;DHT22;1255;48.716;9.124;2023-05-21T09:31:23;22.80;99.90
2489;DHT22;1255;48.716;9.124;2023-05-21T09:33:51;22.80;99.90
2489;DHT22;1255;48.716;9.124;2023-05-21T09:36:20;23.00;99.90
2489;DHT22;1255;48.716;9.124;2023-05-21T09:38:47;23.20;99.90
2489;DHT22;1255;48.716;9.124;2023-05-21T09:41:16;23.30;99.90
2489;DHT22;1255;48.716;9.124;2023-05-21T09:43:43;23.30;99.90
2489;DHT22;1255;48.716;9.124;2023-05-21T09:46:10;23.30;99.90
2489;DHT22;1255;48.716;9.124;2023-05-21T09:48:39;23.30;99.90
2489;DHT22;1255;48.716;9.124;2023-05-21T09:51:10;23.20;99.90
2489;DHT22;1255;48.716;9.124;2023-05-21T09:53:48;23.30;99.90
2489;DHT22;1255;48.716;9.124;2023-05-21T09:56:18;23.40;99.90
2489;DHT22;1255;48.716;9.124;2023-05-21T09:58:46;23.60;99.90
2489;DHT22;1255;48.716;9.124;2023-05-21T10:01:13;23.90;99.90
2489;DHT22;1255;48.716;9.124;2023-05-21T10:03:41;24.10;99.90
2489;DHT22;1255;48.716;9.124;2023-05-21T10:06:08;24.10;99.90
2489;DHT22;1255;48.716;9.124;2023-05-21T10:08:41;24.40;99.90
2489;DHT22;1255;48.716;9.124;2023-05-21T10:11:11;24.50;99.90
2489;DHT22;1255;48.716;9.124;2023-05-21T10:13:44;24.60;99.90
2489;DHT22;1255;48.716;9.124;2023-05-21T10:16:11;24.70;99.90
2489;DHT22;1255;48.716;9.124;2023-05-21T10:18:38;24.90;99.90
2489;DHT22;1255;48.716;9.124;2023-05-21T10:21:05;25.10;99.90
2489;DHT22;1255;48.716;9.124;2023-05-21T10:23:34;25.20;99.90
2489;DHT22;1255;48.716;9.124;2023-05-21T10:26:01;25.10;99.90
2489;DHT22;1255;48.716;9.124;2023-05-21T10:28:30;25.30;99.90
2489;DHT22;1255;48.716;9.124;2023-05-21T10:30:59;25.50;99.90
2489;DHT22;1255;48.716;9.124;2023-05-21T10:33:26;25.40;99.90
2489;DHT22;1255;48.716;9.124;2023-05-21T10:35:56;25.40;99.90
2489;DHT22;1255;48.716;9.124;2023-05-21T10:38:24;25.50;99.90
2489;DHT22;1255;48.716;9.124;2023-05-21T10:40:52;25.60;99.90
2489;DHT22;1255;48.716;9.124;2023-05-21T10:43:37;25.70;99.90
2489;DHT22;1255;48.716;9.124;2023-05-21T10:46:33;25.70;99.90
2489;DHT22;1255;48.716;9.124;2023-05-21T10:49:18;25.70;99.90
2489;DHT22;1255;48.716;9.124;2023-05-21T10:51:58;25.70;99.90
2489;DHT22;1255;48.716;9.124;2023-05-21T10:54:46;25.60;99.90
2489;DHT22;1255;48.716;9.124;2023-05-21T10:57:27;25.60;99.90
2489;DHT22;1255;48.716;9.124;2023-05-21T10:59:56;25.80;99.90
2489;DHT22;1255;48.716;9.124;2023-05-21T11:02:25;26.10;99.90
2489;DHT22;1255;48.716;9.124;2023-05-21T11:04:57;26.10;99.90
2489;DHT22;1255;48.716;9.124;2023-05-21T11:07:50;26.20;99.90
2489;DHT22;1255;48.716;9.124;2023-05-21T11:10:30;26.20;99.90
2489;DHT22;1255;48.716;9.124;2023-05-21T11:13:21;26.10;99.90
2489;DHT22;1255;48.716;9.124;2023-05-21T11:16:04;26.00;99.90
2489;DHT22;1255;48.716;9.124;2023-05-21T11:19:01;25.80;99.90
2489;DHT22;1255;48.716;9.124;2023-05-21T11:21:29;26.10;99.90
2489;DHT22;1255;48.716;9.124;2023-05-21T11:24:00;26.20;99.90
2489;DHT22;1255;48.716;9.124;2023-05-21T11:26:29;26.30;99.90
2489;DHT22;1255;48.716;9.124;2023-05-21T11:29:06;26.20;99.90
2489;DHT22;1255;48.716;9.124;2023-05-21T11:31:34;26.30;99.90
2489;DHT22;1255;48.716;9.124;2023-05-21T11:34:14;26.50;99.90
2489;DHT22;1255;48.716;9.124;2023-05-21T11:36:45;26.50;99.90
2489;DHT22;1255;48.716;9.124;2023-05-21T11:39:13;26.60;99.90
2489;DHT22;1255;48.716;9.124;2023-05-21T11:41:52;26.50;99.90
2489;DHT22;1255;48.716;9.124;2023-05-21T11:44:30;26.60;99.90
2489;DHT22;1255;48.716;9.124;2023-05-21T11:47:03;26.80;99.90
2489;DHT22;1255;48.716;9.124;2023-05-21T11:49:32;26.90;99.90
2489;DHT22;1255;48.716;9.124;2023-05-21T11:51:59;26.80;99.90
2489;DHT22;1255;48.716;9.124;2023-05-21T11:54:26;26.80;99.90
2489;DHT22;1255;48.716;9.124;2023-05-21T11:56:54;26.60;99.90
2489;DHT22;1255;48.716;9.124;2023-05-21T11:59:21;26.70;99.90
2489;DHT22;1255;48.716;9.124;2023-05-21T12:01:47;26.60;99.90
2489;DHT22;1255;48.716;9.124;2023-05-21T12:04:14;26.30;99.90
2489;DHT22;1255;48.716;9.124;2023-05-21T12:06:43;26.30;99.90
2489;DHT22;1255;48.716;9.124;2023-05-21T12:09:10;26.30;99.90
2489;DHT22;1255;48.716;9.124;2023-05-21T12:11:37;26.30;99.90
2489;DHT22;1255;48.716;9.124;2023-05-21T12:14:06;26.10;99.90
2489;DHT22;1255;48.716;9.124;2023-05-21T12:16:34;26.00;99.90
2489;DHT22;1255;48.716;9.124;2023-05-21T12:19:02;26.00;99.90
2489;DHT22;1255;48.716;9.124;2023-05-21T12:21:29;26.00;99.90
2489;DHT22;1255;48.716;9.124;2023-05-21T12:23:58;26.00;99.90
2489;DHT22;1255;48.716;9.124;2023-05-21T12:26:25;25.90;99.90
2489;DHT22;1255;48.716;9.124;2023-05-21T12:28:53;25.80;99.90
2489;DHT22;1255;48.716;9.124;2023-05-21T12:31:20;25.60;99.90
2489;DHT22;1255;48.716;9.124;2023-05-21T12:33:48;25.60;99.90
2489;DHT22;1255;48.716;9.124;2023-05-21T12:36:20;25.40;99.90
2489;DHT22;1255;48.716;9.124;2023-05-21T12:38:48;25.40;99.90
2489;DHT22;1255;48.716;9.124;2023-05-21T12:41:17;25.50;99.90
2489;DHT22;1255;48.716;9.124;2023-05-21T12:43:45;25.50;99.90
2489;DHT22;1255;48.716;9.124;2023-05-21T12:46:13;25.40;99.90
2489;DHT22;1255;48.716;9.124;2023-05-21T12:48:47;25.20;99.90
2489;DHT22;1255;48.716;9.124;2023-05-21T12:51:14;25.20;99.90
2489;DHT22;1255;48.716;9.124;2023-05-21T12:53:41;25.20;99.90
2489;DHT22;1255;48.716;9.124;2023-05-21T12:56:09;25.10;99.90
2489;DHT22;1255;48.716;9.124;2023-05-21T12:58:37;25.20;99.90
2489;DHT22;1255;48.716;9.124;2023-05-21T13:01:05;25.20;99.90
2489;DHT22;1255;48.716;9.124;2023-05-21T13:03:32;25.00;99.90
2489;DHT22;1255;48.716;9.124;2023-05-21T13:05:59;25.00;99.90
2489;DHT22;1255;48.716;9.124;2023-05-21T13:08:27;24.80;99.90
2489;DHT22;1255;48.716;9.124;2023-05-21T13:10:54;24.70;99.90
2489;DHT22;1255;48.716;9.124;2023-05-21T13:13:20;24.60;99.90
2489;DHT22;1255;48.716;9.124;2023-05-21T13:15:49;24.60;99.90
2489;DHT22;1255;48.716;9.124;2023-05-21T13:18:16;24.60;99.90
2489;DHT22;1255;48.716;9.124;2023-05-21T13:20:45;24.40;99.90
2489;DHT22;1255;48.716;9.124;2023-05-21T13:23:11;24.40;99.90
2489;DHT22;1255;48.716;9.124;2023-05-21T13:25:38;24.30;99.90
2489;DHT22;1255;48.716;9.124;2023-05-21T13:28:05;24.30;99.90
2489;DHT22;1255;48.716;9.124;2023-05-21T13:30:34;24.30;99.90
2489;DHT22;1255;48.716;9.124;2023-05-21T13:33:04;24.30;99.90
2489;DHT22;1255;48.716;9.124;2023-05-21T13:35:31;24.30;99.90
2489;DHT22;1255;48.716;9.124;2023-05-21T13:37:59;24.30;99.90
2489;DHT22;1255;48.716;9.124;2023-05-21T13:40:26;24.40;99.90
2489;DHT22;1255;48.716;9.124;2023-05-21T13:42:52;24.50;99.90
2489;DHT22;1255;48.716;9.124;2023-05-21T13:45:19;24.60;99.90
2489;DHT22;1255;48.716;9.124;2023-05-21T13:47:49;24.60;99.90
2489;DHT22;1255;48.716;9.124;2023-05-21T13:50:17;24.50;99.90
2489;DHT22;1255;48.716;9.124;2023-05-21T13:52:44;24.60;99.90
2489;DHT22;1255;48.716;9.124;2023-05-21T13:55:11;24.60;99.90
2489;DHT22;1255;48.716;9.124;2023-05-21T13:57:40;24.70;99.90
2489;DHT22;1255;48.716;9.124;2023-05-21T14:00:08;24.90;99.90
2489;DHT22;1255;48.716;9.124;2023-05-21T14:02:36;25.00;99.90
2489;DHT22;1255;48.716;9.124;2023-05-21T14:05:04;24.90;99.90
2489;DHT22;1255;48.716;9.124;2023-05-21T14:07:32;25.00;99.90
2489;DHT22;1255;48.716;9.124;2023-05-21T14:09:59;25.10;99.90
2489;DHT22;1255;48.716;9.124;2023-05-21T14:12:25;25.20;99.90
2489;DHT22;1255;48.716;9.124;2023-05-21T14:14:52;25.30;99.90
2489;DHT22;1255;48.716;9.124;2023-05-21T14:17:20;25.50;99.90
2489;DHT22;1255;48.716;9.124;2023-05-21T14:19:46;25.60;99.90
2489;DHT22;1255;48.716;9.124;2023-05-21T14:22:13;25.60;99.90
2489;DHT22;1255;48.716;9.124;2023-05-21T14:24:41;25.70;99.90
2489;DHT22;1255;48.716;9.124;2023-05-21T14:27:08;25.80;99.90
2489;DHT22;1255;48.716;9.124;2023-05-21T14:29:35;26.00;99.90
2489;DHT22;1255;48.716;9.124;2023-05-21T14:32:02;26.10;99.90
2489;DHT22;1255;48.716;9.124;2023-05-21T14:34:29;26.30;99.90
2489;DHT22;1255;48.716;9.124;2023-05-21T14:36:56;26.40;99.90
2489;DHT22;1255;48.716;9.124;2023-05-21T14:39:22;26.60;99.90
2489;DHT22;1255;48.716;9.124;2023-05-21T14:41:50;26.80;99.90
2489;DHT22;1255;48.716;9.124;2023-05-21T14:44:17;27.00;99.90
2489;DHT22;1255;48.716;9.124;2023-05-21T14:46:44;26.90;99.80
2489;DHT22;1255;48.716;9.124;2023-05-21T14:49:11;26.90;97.30
2489;DHT22;1255;48.716;9.124;2023-05-21T14:51:39;27.00;98.60
2489;DHT22;1255;48.716;9.124;2023-05-21T14:54:08;26.80;99.00
2489;DHT22;1255;48.716;9.124;2023-05-21T14:56:35;26.70;98.30
2489;DHT22;1255;48.716;9.124;2023-05-21T14:59:03;26.70;98.20
2489;DHT22;1255;48.716;9.124;2023-05-21T15:01:30;26.70;99.10
2489;DHT22;1255;48.716;9.124;2023-05-21T15:03:57;26.50;96.40
2489;DHT22;1255;48.716;9.124;2023-05-21T15:06:23;26.40;98.20
2489;DHT22;1255;48.716;9.124;2023-05-21T15:08:50;26.20;95.80
2489;DHT22;1255;48.716;9.124;2023-05-21T15:11:17;25.90;96.60
2489;DHT22;1255;48.716;9.124;2023-05-21T15:13:44;25.70;97.00
2489;DHT22;1255;48.716;9.124;2023-05-21T15:16:12;25.50;96.60
2489;DHT22;1255;48.716;9.124;2023-05-21T15:18:38;25.40;96.50
2489;DHT22;1255;48.716;9.124;2023-05-21T15:21:05;25.30;96.50
2489;DHT22;1255;48.716;9.124;2023-05-21T15:23:32;25.30;97.20
2489;DHT22;1255;48.716;9.124;2023-05-21T15:25:59;25.20;97.20
2489;DHT22;1255;48.716;9.124;2023-05-21T15:28:26;25.20;97.60
2489;DHT22;1255;48.716;9.124;2023-05-21T15:30:53;25.20;97.70
2489;DHT22;1255;48.716;9.124;2023-05-21T15:33:21;25.20;98.40
2489;DHT22;1255;48.716;9.124;2023-05-21T15:35:48;25.30;99.20
2489;DHT22;1255;48.716;9.124;2023-05-21T15:38:15;25.20;97.70
2489;DHT22;1255;48.716;9.124;2023-05-21T15:40:42;25.10;96.30
2489;DHT22;1255;48.716;9.124;2023-05-21T15:43:09;25.10;97.70
2489;DHT22;1255;48.716;9.124;2023-05-21T15:45:35;25.10;98.20
2489;DHT22;1255;48.716;9.124;2023-05-21T15:48:03;25.20;99.20
2489;DHT22;1255;48.716;9.124;2023-05-21T15:50:31;25.20;98.20
2489;DHT22;1255;48.716;9.124;2023-05-21T15:52:59;25.10;97.60
2489;DHT22;1255;48.716;9.124;2023-05-21T15:55:26;25.10;97.80
2489;DHT22;1255;48.716;9.124;2023-05-21T15:57:53;25.10;97.30
2489;DHT22;1255;48.716;9.124;2023-05-21T16:00:19;25.10;97.10
2489;DHT22;1255;48.716;9.124;2023-05-21T16:02:46;25.10;97.10
2489;DHT22;1255;48.716;9.124;2023-05-21T16:05:13;25.00;97.60
2489;DHT22;1255;48.716;9.124;2023-05-21T16:07:41;25.10;96.90